Time;durP1;ratioP1;P1;durP2;ratioP2;P2;SDS_P1;SDS_P2;PMS_P1;PMS_P2;Temp;Humidity;BMP_temperature;BMP_pressure;BME280_temperature;BME280_humidity;BME280_pressure;Samples;Min_cycle;Max_cycle;Signal;HPM_P1;HPM_P2
2021/10/22 00:01:49;;;;;;;877.25;496.65;;;;;;;;;;5069288;28;20077;-76
2021/10/22 00:04:15;;;;;;;887.53;531.30;;;;;;;;;;5067960;28;20524;-76
2021/10/22 00:06:40;;;;;;;884.75;521.63;;;;;;;;;;5086777;28;20492;-77
2021/10/22 00:09:06;;;;;;;888.35;527.03;;;;;;;;;;5087261;28;20031;-76
2021/10/22 00:11:34;;;;;;;881.58;507.70;;;;;;;;;;5068409;28;20113;-76
2021/10/22 00:14:01;;;;;;;882.17;504.95;;;;;;;;;;5066391;28;20035;-76
2021/10/22 00:16:27;;;;;;;878.78;488.42;;;;;;;;;;5068733;28;20123;-77
2021/10/22 00:18:53;;;;;;;881.72;508.63;;;;;;;;;;5087215;28;20035;-76
2021/10/22 00:21:19;;;;;;;878.97;501.50;;;;;;;;;;5068840;28;20067;-76
2021/10/22 00:23:46;;;;;;;882.97;515.17;;;;;;;;;;5087132;28;20418;-76
2021/10/22 00:26:12;;;;;;;877.97;494.73;;;;;;;;;;5086946;28;20056;-75
2021/10/22 00:28:38;;;;;;;885.28;527.15;;;;;;;;;;5089683;28;20478;-76
2021/10/22 00:31:04;;;;;;;887.22;529.80;;;;;;;;;;5090334;28;20301;-76
2021/10/22 00:33:30;;;;;;;880.40;507.70;;;;;;;;;;5071921;28;20032;-76
2021/10/22 00:35:56;;;;;;;880.78;517.38;;;;;;;;;;5082849;28;20036;-76
2021/10/22 00:38:22;;;;;;;887.83;536.33;;;;;;;;;;5070391;28;20111;-76
2021/10/22 00:40:48;;;;;;;894.92;565.05;;;;;;;;;;5069288;28;20220;-76
2021/10/22 00:43:15;;;;;;;888.20;541.67;;;;;;;;;;5079539;28;20032;-77
2021/10/22 00:45:42;;;;;;;885.92;532.90;;;;;;;;;;5071853;28;20055;-76
2021/10/22 00:48:08;;;;;;;885.28;528.55;;;;;;;;;;5090351;28;20487;-77
2021/10/22 00:50:37;;;;;;;884.60;528.10;;;;;;;;;;5090723;28;20103;-76
2021/10/22 00:53:04;;;;;;;882.67;529.17;;;;;;;;;;5071777;28;20452;-77
2021/10/22 00:55:30;;;;;;;894.95;554.65;;;;;;;;;;5090123;28;20395;-76
2021/10/22 00:57:57;;;;;;;883.58;525.95;;;;;;;;;;5090570;28;20020;-77
2021/10/22 01:00:23;;;;;;;890.45;546.33;;;;;;;;;;5090389;28;20319;-76
2021/10/22 01:02:49;;;;;;;896.45;566.47;;;;;;;;;;5068985;28;20035;-76
2021/10/22 01:05:16;;;;;;;884.00;520.13;;;;;;;;;;5080337;28;20028;-75
2021/10/22 01:07:43;;;;;;;890.70;547.85;;;;;;;;;;5087429;28;20031;-76
2021/10/22 01:10:10;;;;;;;895.85;562.72;;;;;;;;;;5067856;28;20430;-77
2021/10/22 01:12:36;;;;;;;888.83;547.13;;;;;;;;;;5064715;28;20281;-76
2021/10/22 01:15:03;;;;;;;894.13;562.65;;;;;;;;;;5072135;28;20044;-77
2021/10/22 01:17:32;;;;;;;888.50;542.35;;;;;;;;;;5070524;28;20032;-75
2021/10/22 01:19:58;;;;;;;887.35;546.40;;;;;;;;;;5071328;28;20051;-75
2021/10/22 01:22:24;;;;;;;886.65;540.28;;;;;;;;;;5070203;28;20040;-76
2021/10/22 01:24:51;;;;;;;892.05;560.05;;;;;;;;;;5071782;28;20024;-75
2021/10/22 01:27:17;;;;;;;892.85;559.97;;;;;;;;;;5088517;28;20024;-76
2021/10/22 01:29:43;;;;;;;896.70;569.50;;;;;;;;;;5089957;28;20672;-76
2021/10/22 01:32:09;;;;;;;880.10;526.08;;;;;;;;;;5088627;28;20036;-76
2021/10/22 01:34:35;;;;;;;889.55;553.25;;;;;;;;;;5070671;28;20515;-77
2021/10/22 01:37:01;;;;;;;892.25;559.85;;;;;;;;;;5070843;28;20059;-77
2021/10/22 01:39:27;;;;;;;895.10;567.97;;;;;;;;;;5088349;28;20028;-77
2021/10/22 01:41:53;;;;;;;890.40;549.47;;;;;;;;;;5064913;28;20483;-76
2021/10/22 01:44:23;;;;;;;887.03;531.42;;;;;;;;;;5066278;28;20123;-76
2021/10/22 01:46:49;;;;;;;894.22;564.25;;;;;;;;;;5069728;28;20055;-76
2021/10/22 01:49:15;;;;;;;889.63;541.05;;;;;;;;;;5064103;28;20242;-77
2021/10/22 01:51:41;;;;;;;888.92;541.95;;;;;;;;;;5064702;28;20123;-76
2021/10/22 01:54:07;;;;;;;886.90;542.78;;;;;;;;;;5088711;28;20055;-77
2021/10/22 01:56:34;;;;;;;886.53;533.17;;;;;;;;;;5088413;28;20056;-75
2021/10/22 01:59:01;;;;;;;892.60;560.35;;;;;;;;;;5071036;28;20035;-75
2021/10/22 02:01:27;;;;;;;883.88;528.83;;;;;;;;;;5067977;28;20039;-76
2021/10/22 02:03:53;;;;;;;891.47;552.15;;;;;;;;;;5058258;28;20040;-76
2021/10/22 02:06:19;;;;;;;889.28;545.08;;;;;;;;;;5066210;28;20419;-76
2021/10/22 02:08:45;;;;;;;890.13;551.60;;;;;;;;;;5065281;28;20059;-78
2021/10/22 02:11:11;;;;;;;893.78;557.35;;;;;;;;;;5077704;28;20539;-75
2021/10/22 02:13:37;;;;;;;890.80;542.05;;;;;;;;;;5077648;28;20412;-76
2021/10/22 02:16:04;;;;;;;889.63;545.40;;;;;;;;;;5069185;28;20048;-75
2021/10/22 02:18:30;;;;;;;888.80;544.38;;;;;;;;;;5074787;28;20040;-75
2021/10/22 02:20:56;;;;;;;883.67;530.58;;;;;;;;;;5060458;28;20059;-77
2021/10/22 02:23:22;;;;;;;890.95;546.92;;;;;;;;;;5076151;28;20032;-76
2021/10/22 02:25:48;;;;;;;882.30;519.97;;;;;;;;;;5069966;28;20029;-75
2021/10/22 02:28:14;;;;;;;885.08;525.58;;;;;;;;;;5085814;28;20103;-76
2021/10/22 02:30:41;;;;;;;884.33;527.55;;;;;;;;;;5050378;28;20178;-76
2021/10/22 02:33:07;;;;;;;885.78;526.05;;;;;;;;;;5083971;28;20028;-74
2021/10/22 02:35:33;;;;;;;885.10;524.33;;;;;;;;;;5067437;28;20404;-76
2021/10/22 02:38:00;;;;;;;883.90;520.40;;;;;;;;;;5062944;28;20061;-77
2021/10/22 02:40:26;;;;;;;884.92;520.50;;;;;;;;;;5064052;28;20040;-76
2021/10/22 02:42:52;;;;;;;890.88;543.42;;;;;;;;;;5072950;28;20032;-76
2021/10/22 02:45:18;;;;;;;882.38;518.95;;;;;;;;;;5072083;28;20027;-74
2021/10/22 02:47:44;;;;;;;884.15;523.33;;;;;;;;;;5063863;28;20494;-76
2021/10/22 02:50:10;;;;;;;889.55;532.88;;;;;;;;;;5068319;28;20040;-75
2021/10/22 02:52:36;;;;;;;871.47;476.52;;;;;;;;;;5054862;28;21219;-75
2021/10/22 02:55:02;;;;;;;877.85;492.27;;;;;;;;;;5077016;28;20036;-76
2021/10/22 02:57:28;;;;;;;882.42;506.83;;;;;;;;;;5071996;28;20392;-75
2021/10/22 02:59:54;;;;;;;880.08;504.60;;;;;;;;;;5068055;28;20036;-75
2021/10/22 03:02:21;;;;;;;876.50;490.55;;;;;;;;;;5065521;28;20115;-75
2021/10/22 03:04:47;;;;;;;881.80;508.88;;;;;;;;;;5070441;28;20032;-74
2021/10/22 03:07:13;;;;;;;876.78;490.23;;;;;;;;;;5076197;28;20043;-75
2021/10/22 03:09:39;;;;;;;885.08;515.15;;;;;;;;;;5063199;28;20020;-75
2021/10/22 03:12:05;;;;;;;875.90;484.42;;;;;;;;;;5071513;28;20038;-74
2021/10/22 03:14:31;;;;;;;880.92;478.63;;;;;;;;;;5066849;28;20048;-76
2021/10/22 03:16:57;;;;;;;878.25;493.75;;;;;;;;;;5076479;28;20080;-76
2021/10/22 03:19:23;;;;;;;869.85;468.58;;;;;;;;;;5057280;28;20391;-76
2021/10/22 03:21:49;;;;;;;876.65;482.02;;;;;;;;;;5067636;28;20340;-75
2021/10/22 03:24:15;;;;;;;871.88;471.67;;;;;;;;;;5082343;28;20072;-76
2021/10/22 03:26:41;;;;;;;872.15;469.08;;;;;;;;;;5063789;28;20028;-75
2021/10/22 03:29:07;;;;;;;869.53;471.10;;;;;;;;;;5059394;28;20024;-75
2021/10/22 03:31:35;;;;;;;878.45;494.40;;;;;;;;;;5085477;28;20025;-76
2021/10/22 03:34:00;;;;;;;887.75;532.28;;;;;;;;;;5073440;28;20029;-74
2021/10/22 03:36:27;;;;;;;880.15;510.25;;;;;;;;;;5065440;28;20032;-75
2021/10/22 03:38:53;;;;;;;871.97;480.38;;;;;;;;;;5066482;28;20128;-75
2021/10/22 03:41:19;;;;;;;874.90;483.27;;;;;;;;;;5065453;28;20033;-75
2021/10/22 03:43:45;;;;;;;871.45;481.52;;;;;;;;;;5055431;28;20024;-75
2021/10/22 03:46:11;;;;;;;882.28;514.65;;;;;;;;;;5076621;28;20032;-75
2021/10/22 03:48:37;;;;;;;878.58;497.40;;;;;;;;;;5077844;28;20590;-75
2021/10/22 03:51:03;;;;;;;882.85;517.88;;;;;;;;;;5052766;28;20107;-75
2021/10/22 03:53:29;;;;;;;884.78;524.38;;;;;;;;;;5052212;28;20030;-75
2021/10/22 03:55:54;;;;;;;891.42;555.75;;;;;;;;;;5075572;28;20024;-76
2021/10/22 03:58:20;;;;;;;880.88;510.27;;;;;;;;;;5064123;28;20641;-75
2021/10/22 04:00:47;;;;;;;885.92;530.88;;;;;;;;;;5058907;28;20415;-76
2021/10/22 04:03:14;;;;;;;882.72;522.90;;;;;;;;;;5053084;28;20032;-77
2021/10/22 04:05:41;;;;;;;882.35;520.00;;;;;;;;;;5087636;28;20416;-76
2021/10/22 04:08:07;;;;;;;880.88;512.65;;;;;;;;;;5070431;28;20054;-74
2021/10/22 04:10:33;;;;;;;882.95;519.75;;;;;;;;;;5082896;28;20017;-76
2021/10/22 04:13:00;;;;;;;883.33;521.35;;;;;;;;;;5061541;28;20039;-78
2021/10/22 04:15:26;;;;;;;882.85;516.58;;;;;;;;;;5086502;28;20440;-74
2021/10/22 04:17:52;;;;;;;882.10;518.05;;;;;;;;;;5062834;28;20484;-77
2021/10/22 04:20:19;;;;;;;876.03;499.75;;;;;;;;;;5081370;28;20043;-76
2021/10/22 04:22:45;;;;;;;876.10;507.00;;;;;;;;;;5090653;28;20069;-76
2021/10/22 04:25:11;;;;;;;876.97;502.30;;;;;;;;;;5089654;28;20588;-76
2021/10/22 04:27:37;;;;;;;881.63;520.80;;;;;;;;;;5072706;28;20028;-75
2021/10/22 04:30:07;;;;;;;883.00;517.92;;;;;;;;;;5067296;28;20046;-75
2021/10/22 04:32:33;;;;;;;880.40;512.28;;;;;;;;;;5081541;28;20032;-76
2021/10/22 04:34:59;;;;;;;874.92;493.80;;;;;;;;;;5067872;28;20028;-75
2021/10/22 04:37:32;;;;;;;879.65;510.35;;;;;;;;;;5065842;28;20503;-76
2021/10/22 04:42:46;;;;;;;887.88;544.40;;;;;;;;;;5084410;28;20039;-75
2021/10/22 04:45:12;;;;;;;884.88;531.42;;;;;;;;;;5076083;28;20107;-74
2021/10/22 04:47:39;;;;;;;885.65;528.25;;;;;;;;;;5081579;28;20376;-76
2021/10/22 04:50:06;;;;;;;883.58;530.00;;;;;;;;;;5072103;28;20484;-76
2021/10/22 04:52:32;;;;;;;884.75;535.70;;;;;;;;;;5090451;28;20039;-75
2021/10/22 04:54:58;;;;;;;878.85;517.72;;;;;;;;;;5073304;28;20467;-76
2021/10/22 04:57:24;;;;;;;896.67;541.88;;;;;;;;;;5071406;28;20452;-75
2021/10/22 04:59:50;;;;;;;885.20;535.38;;;;;;;;;;5071368;28;20040;-76
2021/10/22 05:02:16;;;;;;;886.83;544.63;;;;;;;;;;5089919;28;20490;-74
2021/10/22 05:04:42;;;;;;;888.85;556.38;;;;;;;;;;5071006;28;20112;-74
2021/10/22 05:07:08;;;;;;;886.88;547.22;;;;;;;;;;5084567;28;20637;-76
2021/10/22 05:09:35;;;;;;;884.95;543.42;;;;;;;;;;5076551;28;20059;-77
2021/10/22 05:12:05;;;;;;;885.38;539.15;;;;;;;;;;5072276;28;20036;-77
2021/10/22 05:14:32;;;;;;;885.13;540.90;;;;;;;;;;5088849;28;20090;-75
2021/10/22 05:16:58;;;;;;;883.00;540.55;;;;;;;;;;5088060;28;20028;-75
2021/10/22 05:19:24;;;;;;;893.75;541.28;;;;;;;;;;5089734;28;20569;-76
2021/10/22 05:21:50;;;;;;;881.95;522.42;;;;;;;;;;5070872;28;20032;-77
2021/10/22 05:24:17;;;;;;;883.30;526.20;;;;;;;;;;5071635;28;20020;-76
2021/10/22 05:26:43;;;;;;;879.25;520.80;;;;;;;;;;5070690;28;20055;-75
2021/10/22 05:29:09;;;;;;;882.83;535.05;;;;;;;;;;5089196;28;20535;-76
2021/10/22 05:31:35;;;;;;;885.22;538.38;;;;;;;;;;5088644;28;20035;-76
2021/10/22 05:34:01;;;;;;;888.08;545.78;;;;;;;;;;5088983;28;20336;-75
2021/10/22 05:36:27;;;;;;;883.83;534.50;;;;;;;;;;5088543;28;20043;-75
2021/10/22 05:38:54;;;;;;;892.22;555.72;;;;;;;;;;5070075;28;20050;-75
2021/10/22 05:41:20;;;;;;;881.90;530.22;;;;;;;;;;5088889;28;20035;-74
2021/10/22 05:43:47;;;;;;;883.38;535.58;;;;;;;;;;5067643;28;20212;-76
2021/10/22 05:46:14;;;;;;;883.08;532.90;;;;;;;;;;5067999;28;20435;-74
2021/10/22 05:48:40;;;;;;;883.80;536.97;;;;;;;;;;5084409;28;20024;-74
2021/10/22 05:51:06;;;;;;;887.78;550.50;;;;;;;;;;5070305;28;20039;-75
2021/10/22 05:53:33;;;;;;;890.10;556.72;;;;;;;;;;5057665;28;20417;-75
2021/10/22 05:55:59;;;;;;;887.20;552.92;;;;;;;;;;5088050;28;20027;-76
2021/10/22 05:58:25;;;;;;;881.08;530.17;;;;;;;;;;5070069;28;20032;-75
2021/10/22 06:00:51;;;;;;;883.22;529.42;;;;;;;;;;5088328;28;20103;-76
2021/10/22 06:03:17;;;;;;;885.25;539.10;;;;;;;;;;5088243;28;20260;-75
2021/10/22 06:05:43;;;;;;;888.65;550.28;;;;;;;;;;5070867;28;20020;-75
2021/10/22 06:08:10;;;;;;;885.63;536.28;;;;;;;;;;5069846;28;20431;-76
2021/10/22 06:10:36;;;;;;;884.53;532.47;;;;;;;;;;5088771;28;20396;-76
2021/10/22 06:13:02;;;;;;;882.95;538.25;;;;;;;;;;5083457;28;20039;-76
2021/10/22 06:15:30;;;;;;;883.55;536.90;;;;;;;;;;5065567;28;20105;-76
2021/10/22 06:17:56;;;;;;;891.03;561.92;;;;;;;;;;5061603;28;20029;-76
2021/10/22 06:20:30;;;;;;;886.35;546.42;;;;;;;;;;5074120;28;20067;-76
2021/10/22 06:25:55;;;;;;;886.83;542.03;;;;;;;;;;5042565;28;20408;-75
2021/10/22 06:28:21;;;;;;;882.55;533.60;;;;;;;;;;5069424;28;20031;-74
2021/10/22 06:30:47;;;;;;;884.33;539.78;;;;;;;;;;5087930;28;20027;-76
2021/10/22 06:33:13;;;;;;;883.33;540.72;;;;;;;;;;5087416;28;20503;-76
2021/10/22 06:35:39;;;;;;;889.35;561.67;;;;;;;;;;5088240;28;20404;-74
2021/10/22 06:38:05;;;;;;;881.50;533.13;;;;;;;;;;5069706;28;20061;-75
2021/10/22 06:40:31;;;;;;;880.85;525.75;;;;;;;;;;5069450;28;20107;-75
2021/10/22 06:42:57;;;;;;;885.30;537.00;;;;;;;;;;5066633;28;20541;-75
2021/10/22 06:45:23;;;;;;;925.65;528.90;;;;;;;;;;5069143;28;20024;-75
2021/10/22 06:47:49;;;;;;;880.75;528.05;;;;;;;;;;5061486;28;20024;-75
2021/10/22 06:50:16;;;;;;;878.45;524.10;;;;;;;;;;5083720;28;20406;-74
2021/10/22 06:52:42;;;;;;;879.45;527.80;;;;;;;;;;5070286;28;20089;-75
2021/10/22 06:55:08;;;;;;;876.80;513.15;;;;;;;;;;5081650;28;20422;-74
2021/10/22 06:57:34;;;;;;;883.28;541.53;;;;;;;;;;5084589;28;20296;-74
2021/10/22 07:00:00;;;;;;;874.65;515.03;;;;;;;;;;5067155;28;20490;-74
2021/10/22 07:02:29;;;;;;;885.40;547.00;;;;;;;;;;5084911;28;20036;-75
2021/10/22 07:04:55;;;;;;;876.50;515.70;;;;;;;;;;5057613;28;20305;-76
2021/10/22 07:07:24;;;;;;;878.08;534.13;;;;;;;;;;5069563;28;20063;-74
2021/10/22 07:09:51;;;;;;;875.50;523.22;;;;;;;;;;5084695;28;20024;-75
2021/10/22 07:12:17;;;;;;;881.05;533.35;;;;;;;;;;5081441;28;20373;-75
2021/10/22 07:14:52;;;;;;;872.80;510.20;;;;;;;;;;5064174;28;20067;-76
2021/10/22 07:17:18;;;;;;;877.90;526.08;;;;;;;;;;5044935;28;20442;-76
2021/10/22 07:19:44;;;;;;;880.10;528.67;;;;;;;;;;5044739;28;20111;-75
2021/10/22 07:22:14;;;;;;;879.92;530.72;;;;;;;;;;5040924;28;20539;-74
2021/10/22 07:24:40;;;;;;;890.58;529.40;;;;;;;;;;5046343;28;20021;-75
2021/10/22 07:27:06;;;;;;;883.08;554.17;;;;;;;;;;5041172;28;20013;-76
2021/10/22 07:29:33;;;;;;;889.53;579.08;;;;;;;;;;5043116;28;20103;-74
2021/10/22 07:31:59;;;;;;;891.63;591.65;;;;;;;;;;5040209;28;20021;-75
2021/10/22 07:34:26;;;;;;;890.22;595.03;;;;;;;;;;5041789;28;20333;-76
2021/10/22 07:36:54;;;;;;;889.80;591.42;;;;;;;;;;5038022;28;20037;-76
2021/10/22 07:39:20;;;;;;;890.20;596.92;;;;;;;;;;5038794;28;20437;-75
2021/10/22 07:41:46;;;;;;;899.47;637.00;;;;;;;;;;5047810;28;20032;-75
2021/10/22 07:44:12;;;;;;;899.10;624.53;;;;;;;;;;5048038;28;20556;-74
2021/10/22 07:46:42;;;;;;;912.15;679.47;;;;;;;;;;5050841;28;20020;-77
2021/10/22 07:49:09;;;;;;;892.38;622.42;;;;;;;;;;5045166;28;20107;-77
2021/10/22 07:51:35;;;;;;;908.65;661.90;;;;;;;;;;5045453;28;20037;-77
2021/10/22 07:54:01;;;;;;;914.33;686.17;;;;;;;;;;5045797;28;20031;-76
2021/10/22 07:56:27;;;;;;;913.80;687.70;;;;;;;;;;5045388;28;20029;-77
2021/10/22 07:58:53;;;;;;;913.25;690.08;;;;;;;;;;5045258;28;20025;-76
2021/10/22 08:01:19;;;;;;;908.70;676.67;;;;;;;;;;5045096;28;20036;-78
2021/10/22 08:03:46;;;;;;;911.10;684.60;;;;;;;;;;5045299;28;20219;-77
2021/10/22 08:06:14;;;;;;;921.95;716.38;;;;;;;;;;5047009;28;20029;-77
2021/10/22 08:08:42;;;;;;;908.03;665.83;;;;;;;;;;5046703;28;20587;-77
2021/10/22 08:11:08;;;;;;;912.58;682.00;;;;;;;;;;5046726;28;20025;-76
2021/10/22 08:13:34;;;;;;;913.22;675.38;;;;;;;;;;5043806;28;20029;-78
2021/10/22 08:16:00;;;;;;;912.50;675.15;;;;;;;;;;5057792;28;20056;-78
2021/10/22 08:18:26;;;;;;;910.72;677.25;;;;;;;;;;5052772;28;20029;-77
2021/10/22 08:21:02;;;;;;;907.97;660.78;;;;;;;;;;5066432;28;20026;-78
2021/10/22 08:23:29;;;;;;;910.17;677.08;;;;;;;;;;5065439;28;20094;-77
2021/10/22 08:25:55;;;;;;;917.88;704.28;;;;;;;;;;5048528;28;20094;-78
2021/10/22 08:28:21;;;;;;;919.30;703.22;;;;;;;;;;5060048;28;20055;-77
2021/10/22 08:30:55;;;;;;;918.85;703.35;;;;;;;;;;5046856;28;20014;-78
2021/10/22 08:33:21;;;;;;;916.47;696.38;;;;;;;;;;5059249;28;20036;-76
2021/10/22 08:35:47;;;;;;;915.33;697.78;;;;;;;;;;5058243;28;20029;-77
2021/10/22 08:38:13;;;;;;;926.95;728.85;;;;;;;;;;5065391;28;20012;-78
2021/10/22 08:40:39;;;;;;;929.22;737.53;;;;;;;;;;5057459;28;20032;-78
2021/10/22 08:43:06;;;;;;;915.22;704.72;;;;;;;;;;5055062;28;20054;-78
2021/10/22 08:45:33;;;;;;;934.38;753.13;;;;;;;;;;5050465;28;20452;-78
2021/10/22 08:47:59;;;;;;;923.00;717.20;;;;;;;;;;5061851;28;20025;-78
2021/10/22 08:50:25;;;;;;;933.20;746.60;;;;;;;;;;5054455;28;20074;-80
2021/10/22 08:52:52;;;;;;;934.75;751.33;;;;;;;;;;5065539;28;20537;-79
2021/10/22 08:55:19;;;;;;;930.47;747.05;;;;;;;;;;5056024;28;20405;-81
2021/10/22 08:57:46;;;;;;;924.75;729.97;;;;;;;;;;5067811;28;20236;-82
2021/10/22 09:00:13;;;;;;;929.78;743.38;;;;;;;;;;5065013;28;20079;-81
2021/10/22 09:02:39;;;;;;;926.53;733.90;;;;;;;;;;5057362;28;20233;-83
2021/10/22 09:05:20;;;;;;;923.30;722.05;;;;;;;;;;5057462;28;20197;-81
2021/10/22 09:07:46;;;;;;;;;;;;;;;;;;5066973;28;20100;-80
2021/10/22 09:10:18;;;;;;;898.80;623.55;;;;;;;;;;5057851;28;20012;-79
2021/10/22 09:12:46;;;;;;;907.25;660.90;;;;;;;;;;5066550;28;20484;-81
2021/10/22 09:15:14;;;;;;;917.03;696.83;;;;;;;;;;5056176;28;20076;-79
2021/10/22 09:17:41;;;;;;;914.55;697.22;;;;;;;;;;5048729;28;20091;-81
2021/10/22 09:20:08;;;;;;;911.78;688.58;;;;;;;;;;5048439;28;20159;-81
2021/10/22 09:22:35;;;;;;;921.83;713.70;;;;;;;;;;5042507;28;20029;-84
2021/10/22 09:25:11;;;;;;;921.55;709.47;;;;;;;;;;5036364;28;20164;-82
2021/10/22 09:27:40;;;;;;;925.22;731.25;;;;;;;;;;5038511;28;20473;-79
2021/10/22 09:30:08;;;;;;;927.63;733.83;;;;;;;;;;5045917;28;20456;-82
2021/10/22 09:32:43;;;;;;;912.08;686.70;;;;;;;;;;5036265;28;20037;-81
2021/10/22 09:35:09;;;;;;;924.63;724.63;;;;;;;;;;5049882;28;20033;-82
2021/10/22 09:37:37;;;;;;;932.00;742.55;;;;;;;;;;5050066;28;20031;-79
2021/10/22 09:40:04;;;;;;;920.28;706.55;;;;;;;;;;5049695;28;20044;-80
2021/10/22 09:42:30;;;;;;;921.33;720.42;;;;;;;;;;5046350;28;20860;-79
2021/10/22 09:44:56;;;;;;;925.15;734.72;;;;;;;;;;5047385;28;20021;-81
2021/10/22 09:47:22;;;;;;;935.05;764.55;;;;;;;;;;5048401;28;20025;-81
2021/10/22 09:49:52;;;;;;;941.45;781.70;;;;;;;;;;5047888;28;20025;-80
2021/10/22 09:52:21;;;;;;;944.17;797.58;;;;;;;;;;5049160;28;20020;-79
2021/10/22 09:54:48;;;;;;;926.05;750.70;;;;;;;;;;5047929;28;20028;-81
2021/10/22 09:57:17;;;;;;;942.38;790.60;;;;;;;;;;5047153;28;20032;-81
2021/10/22 09:59:44;;;;;;;933.25;770.50;;;;;;;;;;5049000;28;20098;-79
2021/10/22 10:02:11;;;;;;;949.55;781.92;;;;;;;;;;5062563;28;20033;-80
2021/10/22 10:04:38;;;;;;;944.08;805.65;;;;;;;;;;5047359;28;20225;-83
2021/10/22 10:07:05;;;;;;;939.85;789.65;;;;;;;;;;5047337;28;20392;-79
2021/10/22 10:09:31;;;;;;;952.25;819.67;;;;;;;;;;5047794;28;20028;-77
2021/10/22 10:11:58;;;;;;;940.78;802.20;;;;;;;;;;5051197;28;20029;-79
2021/10/22 10:14:26;;;;;;;935.70;793.50;;;;;;;;;;5054343;28;20032;-78
2021/10/22 10:16:53;;;;;;;961.72;853.50;;;;;;;;;;5073852;28;20746;-78
2021/10/22 10:19:24;;;;;;;946.72;815.05;;;;;;;;;;5077088;28;20032;-79
2021/10/22 10:21:50;;;;;;;;;;;;;;;;;;5077611;28;20031;-76
2021/10/22 10:24:18;;;;;;;939.28;783.05;;;;;;;;;;5074482;28;19915;-78
2021/10/22 10:26:57;;;;;;;949.78;813.17;;;;;;;;;;5074509;28;20119;-78
2021/10/22 10:29:30;;;;;;;929.83;777.85;;;;;;;;;;5074504;28;20137;-76
2021/10/22 10:32:06;;;;;;;957.67;840.67;;;;;;;;;;5071730;28;20028;-80
2021/10/22 10:34:32;;;;;;;955.75;836.13;;;;;;;;;;5086648;28;20660;-77
2021/10/22 10:36:59;;;;;;;960.53;842.97;;;;;;;;;;5075554;28;20032;-77
2021/10/22 10:39:44;;;;;;;942.95;803.97;;;;;;;;;;5078255;28;20020;-78
2021/10/22 10:42:16;;;;;;;951.97;819.97;;;;;;;;;;5066636;28;20035;-76
2021/10/22 10:44:43;;;;;;;955.50;831.42;;;;;;;;;;5084226;28;20142;-77
2021/10/22 10:47:27;;;;;;;952.55;832.58;;;;;;;;;;5065615;28;20024;-79
2021/10/22 10:49:54;;;;;;;948.65;819.03;;;;;;;;;;5066780;28;20043;-76
2021/10/22 10:52:35;;;;;;;949.50;822.03;;;;;;;;;;5063977;28;20025;-77
2021/10/22 10:55:12;;;;;;;949.67;829.40;;;;;;;;;;5075241;28;20028;-78
2021/10/22 10:57:51;;;;;;;947.85;828.95;;;;;;;;;;5085359;28;20012;-75
2021/10/22 11:00:18;;;;;;;956.20;839.33;;;;;;;;;;5062029;28;20118;-76
2021/10/22 11:03:06;;;;;;;944.53;823.65;;;;;;;;;;5085424;28;20388;-78
2021/10/22 11:08:13;;;;;;;950.55;835.47;;;;;;;;;;5084960;28;20024;-76
2021/10/22 11:11:02;;;;;;;957.30;848.65;;;;;;;;;;5084420;28;20323;-79
2021/10/22 11:13:48;;;;;;;943.67;822.42;;;;;;;;;;5082734;28;20024;-75
2021/10/22 11:16:32;;;;;;;964.80;858.10;;;;;;;;;;5083838;28;20043;-76
2021/10/22 11:18:59;;;;;;;975.33;868.20;;;;;;;;;;5067767;28;20043;-77
2021/10/22 11:21:29;;;;;;;969.08;862.63;;;;;;;;;;5081644;28;20521;-78
2021/10/22 11:23:57;;;;;;;948.47;836.15;;;;;;;;;;5067141;28;20024;-75
2021/10/22 11:26:23;;;;;;;956.20;849.15;;;;;;;;;;5068061;28;20040;-76
2021/10/22 11:28:53;;;;;;;969.28;862.33;;;;;;;;;;5083000;28;20058;-76
2021/10/22 11:31:36;;;;;;;946.78;825.72;;;;;;;;;;5066978;28;20088;-75
2021/10/22 11:34:05;;;;;;;962.00;853.92;;;;;;;;;;5084926;28;20027;-78
2021/10/22 11:36:32;;;;;;;949.90;829.85;;;;;;;;;;5064043;28;20648;-79
2021/10/22 11:38:59;;;;;;;965.78;858.55;;;;;;;;;;5063149;28;20032;-79
2021/10/22 11:41:26;;;;;;;955.90;842.75;;;;;;;;;;5061748;28;20028;-79
2021/10/22 11:44:05;;;;;;;951.83;837.42;;;;;;;;;;5083514;28;20085;-78
2021/10/22 11:46:45;;;;;;;952.45;833.17;;;;;;;;;;5067806;28;20032;-79
2021/10/22 11:49:22;;;;;;;943.13;810.97;;;;;;;;;;5060366;28;20020;-81
2021/10/22 11:51:52;;;;;;;934.72;779.08;;;;;;;;;;5063786;28;20032;-80
2021/10/22 11:54:37;;;;;;;937.22;794.33;;;;;;;;;;5084579;28;20023;-80
2021/10/22 11:57:04;;;;;;;944.17;805.17;;;;;;;;;;5062717;28;20043;-80
2021/10/22 11:59:31;;;;;;;947.38;823.72;;;;;;;;;;5066493;28;20506;-80
2021/10/22 12:02:05;;;;;;;941.08;801.40;;;;;;;;;;5058487;28;20044;-80
2021/10/22 12:04:33;;;;;;;944.25;808.40;;;;;;;;;;5067203;28;20051;-82
2021/10/22 12:07:00;;;;;;;940.17;801.15;;;;;;;;;;5068496;28;20055;-80
2021/10/22 12:09:29;;;;;;;939.20;795.33;;;;;;;;;;5058764;28;20028;-81
2021/10/22 12:12:07;;;;;;;933.92;787.33;;;;;;;;;;5065167;28;20028;-82
2021/10/22 12:14:40;;;;;;;941.35;793.47;;;;;;;;;;5076548;28;20765;-80
2021/10/22 12:17:07;;;;;;;938.03;790.40;;;;;;;;;;5072455;28;20027;-80
2021/10/22 12:19:33;;;;;;;942.17;805.85;;;;;;;;;;5081529;28;20468;-81
2021/10/22 12:21:59;;;;;;;939.88;795.00;;;;;;;;;;5068104;28;20032;-83
2021/10/22 12:24:37;;;;;;;937.88;791.65;;;;;;;;;;5064577;28;20055;-80
2021/10/22 12:27:07;;;;;;;935.97;779.45;;;;;;;;;;5071328;28;20028;-81
2021/10/22 12:30:02;;;;;;;936.67;780.05;;;;;;;;;;5088186;28;20028;-78
2021/10/22 12:32:38;;;;;;;930.45;759.38;;;;;;;;;;5072783;28;20093;-78
2021/10/22 12:35:05;;;;;;;929.00;747.53;;;;;;;;;;5070719;28;20081;-78
2021/10/22 12:37:33;;;;;;;932.38;759.85;;;;;;;;;;5068183;28;20036;-78
2021/10/22 12:39:59;;;;;;;932.70;759.72;;;;;;;;;;5087247;28;20047;-82
2021/10/22 12:42:29;;;;;;;936.33;772.17;;;;;;;;;;5068988;28;20028;-82
2021/10/22 12:44:55;;;;;;;;;;;;;;;;;;5066753;28;20560;-81
2021/10/22 12:47:21;;;;;;;924.13;721.60;;;;;;;;;;5075944;28;19938;-83
2021/10/22 12:49:50;;;;;;;932.85;762.45;;;;;;;;;;5086619;28;20020;-82
2021/10/22 12:52:16;;;;;;;939.38;783.50;;;;;;;;;;5067569;28;20036;-82
2021/10/22 12:54:46;;;;;;;947.17;809.30;;;;;;;;;;5068041;28;20040;-82
2021/10/22 12:57:21;;;;;;;945.90;807.63;;;;;;;;;;5075487;28;20793;-83
2021/10/22 12:59:47;;;;;;;944.78;804.78;;;;;;;;;;5068235;28;20081;-83
2021/10/22 13:02:26;;;;;;;948.92;812.70;;;;;;;;;;5072208;28;20081;-80
2021/10/22 13:05:17;;;;;;;953.08;813.78;;;;;;;;;;5063236;28;20074;-81
2021/10/22 13:21:17;;;;;;;943.17;805.15;;;;;;;;;;5079525;28;20395;-83
2021/10/22 13:23:44;;;;;;;949.47;822.45;;;;;;;;;;5071451;28;20028;-82
2021/10/22 13:26:10;;;;;;;956.17;841.78;;;;;;;;;;5071359;28;20065;-82
2021/10/22 13:28:36;;;;;;;954.17;838.85;;;;;;;;;;5068886;28;20028;-80
2021/10/22 13:31:08;;;;;;;949.67;826.40;;;;;;;;;;5064247;28;20506;-80
2021/10/22 13:33:34;;;;;;;953.92;830.15;;;;;;;;;;5066168;28;20352;-82
2021/10/22 13:36:01;;;;;;;954.75;835.28;;;;;;;;;;5066512;28;20445;-81
2021/10/22 13:38:28;;;;;;;958.42;847.22;;;;;;;;;;5087951;28;20396;-82
2021/10/22 13:40:58;;;;;;;956.35;842.83;;;;;;;;;;5066464;28;20696;-82
2021/10/22 13:43:24;;;;;;;956.33;837.47;;;;;;;;;;5068668;28;20494;-82
2021/10/22 13:45:50;;;;;;;943.45;808.15;;;;;;;;;;5070825;28;20032;-82
2021/10/22 13:48:17;;;;;;;949.40;822.03;;;;;;;;;;5066311;28;20028;-81
2021/10/22 13:50:44;;;;;;;936.65;788.53;;;;;;;;;;5088080;28;20027;-82
2021/10/22 13:53:11;;;;;;;929.72;773.13;;;;;;;;;;5067092;28;20040;-81
2021/10/22 13:55:38;;;;;;;927.90;765.55;;;;;;;;;;5084451;28;20391;-80
2021/10/22 13:58:04;;;;;;;942.05;783.92;;;;;;;;;;5087844;28;20029;-81
2021/10/22 14:00:32;;;;;;;946.30;807.03;;;;;;;;;;5071607;28;20024;-82
2021/10/22 14:02:58;;;;;;;943.85;806.08;;;;;;;;;;5059944;28;20043;-81
2021/10/22 14:05:24;;;;;;;951.88;829.00;;;;;;;;;;5088571;28;20066;-81
2021/10/22 14:07:51;;;;;;;950.45;821.75;;;;;;;;;;5074106;28;20552;-82
2021/10/22 14:10:24;;;;;;;950.67;820.03;;;;;;;;;;5090111;28;20048;-81
2021/10/22 14:13:04;;;;;;;941.80;795.55;;;;;;;;;;5070514;28;20038;-82
2021/10/22 14:31:19;;;;;;;951.55;816.78;;;;;;;;;;5088322;28;20028;-79
2021/10/22 14:33:45;;;;;;;956.45;833.00;;;;;;;;;;5068650;28;20042;-79
2021/10/22 14:36:11;;;;;;;951.05;820.55;;;;;;;;;;5084792;28;20031;-78